Map

Track Data

SID SEASON NUMBER BASIN SUBBASIN NAME ISO_TIME NATURE LAT LON WMO_WIND WMO_PRES WMO_AGENCY TRACK_TYPE DIST2LAND LANDFALL IFLAG USA_AGENCY USA_ATCF_ID USA_LAT USA_LON USA_RECORD USA_STATUS USA_WIND USA_PRES USA_SSHS USA_R34_NE USA_R34_SE USA_R34_SW USA_R34_NW USA_R50_NE USA_R50_SE USA_R50_SW USA_R50_NW USA_R64_NE USA_R64_SE USA_R64_SW USA_R64_NW USA_POCI USA_ROCI USA_RMW USA_EYE TOKYO_LAT TOKYO_LON TOKYO_GRADE TOKYO_WIND TOKYO_PRES TOKYO_R50_DIR TOKYO_R50_LONG TOKYO_R50_SHORT TOKYO_R30_DIR TOKYO_R30_LONG TOKYO_R30_SHORT TOKYO_LAND CMA_LAT CMA_LON CMA_CAT CMA_WIND CMA_PRES HKO_LAT HKO_LON HKO_CAT HKO_WIND HKO_PRES NEWDELHI_LAT NEWDELHI_LON NEWDELHI_GRADE NEWDELHI_WIND NEWDELHI_PRES NEWDELHI_CI NEWDELHI_DP NEWDELHI_POCI REUNION_LAT REUNION_LON REUNION_TYPE REUNION_WIND REUNION_PRES REUNION_TNUM REUNION_CI REUNION_RMW REUNION_R34_NE REUNION_R34_SE REUNION_R34_SW REUNION_R34_NW REUNION_R50_NE REUNION_R50_SE REUNION_R50_SW REUNION_R50_NW REUNION_R64_NE REUNION_R64_SE REUNION_R64_SW REUNION_R64_NW BOM_LAT BOM_LON BOM_TYPE BOM_WIND BOM_PRES BOM_TNUM BOM_CI BOM_RMW BOM_R34_NE BOM_R34_SE BOM_R34_SW BOM_R34_NW BOM_R50_NE BOM_R50_SE BOM_R50_SW BOM_R50_NW BOM_R64_NE BOM_R64_SE BOM_R64_SW BOM_R64_NW BOM_ROCI BOM_POCI BOM_EYE BOM_POS_METHOD BOM_PRES_METHOD NADI_LAT NADI_LON NADI_CAT NADI_WIND NADI_PRES WELLINGTON_LAT WELLINGTON_LON WELLINGTON_WIND WELLINGTON_PRES DS824_LAT DS824_LON DS824_STAGE DS824_WIND DS824_PRES TD9636_LAT TD9636_LON TD9636_STAGE TD9636_WIND TD9636_PRES TD9635_LAT TD9635_LON TD9635_WIND TD9635_PRES TD9635_ROCI NEUMANN_LAT NEUMANN_LON NEUMANN_CLASS NEUMANN_WIND NEUMANN_PRES MLC_LAT MLC_LON MLC_CLASS MLC_WIND MLC_PRES USA_GUST BOM_GUST BOM_GUST_PER REUNION_GUST REUNION_GUST_PER USA_SEAHGT USA_SEARAD_NE USA_SEARAD_SE USA_SEARAD_SW USA_SEARAD_NW STORM_SPEED STORM_DIR
1940082S14152 1940 18 SP EA NOT_NAMED 1940-03-21 23:00:00 NR -14.0000 151.900 998 bom main 402 399 ______O___O___ -1 -14.0000 152.000 998 -14.0000 151.800 7 8 282
1940082S14152 1940 18 SP EA NOT_NAMED 1940-03-22 00:00:00 TS -13.9703 151.761 main 399 371 ______P__OP___ -1 -13.9417 151.921 -14.0000 151.800 TC 35 998 -13.9840 151.582 7 9 282
1940082S14152 1940 18 SP EA NOT_NAMED 1940-03-22 03:00:00 TS -13.8763 151.305 main 371 351 ______P__PP___ -1 -13.7714 151.672 -13.9457 151.305 TC -13.9348 150.939 7 9 281
1940082S14152 1940 18 SP EA NOT_NAMED 1940-03-22 06:00:00 TS -13.7901 150.842 main 349 335 ______P__PP___ -1 -13.6171 151.383 -13.8949 150.795 TC -13.8845 150.336 7 9 279
1940082S14152 1940 18 SP EA NOT_NAMED 1940-03-22 09:00:00 TS -13.7254 150.360 main 335 335 ______P__PP___ -1 -13.4906 151.023 -13.8521 150.255 TC -13.8337 149.802 7 10 278
1940082S14152 1940 18 SP EA NOT_NAMED 1940-03-22 11:00:00 TS -13.6858 150.033 main 336 336 ______P__PO___ -1 -13.4275 150.729 -13.8299 149.871 TC -13.8000 149.500 7 10 277
1940082S14152 1940 18 SP EA NOT_NAMED 1940-03-22 12:00:00 TS -13.6694 149.866 main 337 331 ______P__PP___ -1 -13.4036 150.562 -13.8213 149.670 TC -13.7834 149.367 7 10 274
1940082S14152 1940 18 SP EA NOT_NAMED 1940-03-22 15:00:00 TS -13.6372 149.332 main 339 339 ______P__PP___ -1 -13.3674 149.969 -13.8066 149.022 TC -13.7378 149.004 7 11 272
1940082S14152 1940 18 SP EA NOT_NAMED 1940-03-22 18:00:00 TS -13.6366 148.703 main 360 325 ______P__PP___ -1 -13.3928 149.212 -13.8119 148.298 TC -13.7050 148.599 7 14 268
1940082S14152 1940 18 SP EA NOT_NAMED 1940-03-22 21:00:00 TS -13.6747 147.923 main 315 260 ______P__PP___ -1 -13.4903 148.259 -13.8408 147.480 TC -13.6931 148.030 7 17 266
1940082S14152 1940 18 SP EA NOT_NAMED 1940-03-22 23:00:00 TS -13.7249 147.291 999 bom main 260 233 ______O__PO___ -1 -13.6000 147.500 999 -13.8748 146.874 TC -13.7000 147.500 7 19 265
1940082S14152 1940 18 SP EA NOT_NAMED 1940-03-23 00:00:00 TS -13.7548 146.929 main 218 129 ______P__PP___ -1 -13.6687 147.080 -13.8965 146.552 TC -13.6991 147.154 7 23 265
1940082S14152 1940 18 SP EA NOT_NAMED 1940-03-23 03:00:00 TS -13.8657 145.706 main 124 33 ______P__PP___ -1 -13.9063 145.706 -13.9821 145.498 TC -13.7085 145.915 7 25 265
1940082S14152 1940 18 SP EA NOT_NAMED 1940-03-23 06:00:00 TS -13.9938 144.346 main 33 32 ______P__OP___ -1 -14.1366 144.269 -14.1000 144.300 TC -13.7447 144.468 7 27 264
1940082S14152 1940 18 SP EA NOT_NAMED 1940-03-23 07:00:00 TS -14.0372 143.875 bom main 21 0 ______O__PP___ -1 -14.2000 143.800 -14.1466 143.867 TC -13.7648 143.959 7 27 265
1940082S14152 1940 18 SP EA NOT_NAMED 1940-03-23 09:00:00 TS -14.1190 142.937 main 0 0 ______P__PP___ -1 -14.2898 142.920 -14.2470 142.966 TC -13.8203 142.926 7 27 265
1940082S14152 1940 18 SP EA NOT_NAMED 1940-03-23 11:00:00 TS -14.2046 141.998 main 0 0 ______P__PO___ -1 -14.3637 142.044 -14.3500 142.051 TC -13.9000 141.900 7 27 264
1940082S14152 1940 18 SP EA NOT_NAMED 1940-03-23 12:00:00 TS -14.2544 141.530 bom main 10 10 ______O__OP___ -1 -14.4000 141.600 -14.4000 141.600 TC -13.9632 141.391 7 28 263
1940082S14152 1940 18 SP EA NOT_NAMED 1940-03-23 15:00:00 TS -14.4419 140.069 main 151 151 ______P__PP___ -1 -14.5974 140.043 -14.5316 140.321 TC -14.1967 139.843 7 28 262
1940082S14152 1940 18 SP EA NOT_NAMED 1940-03-23 18:00:00 TS -14.6339 138.632 main 175 70 ______P__PP___ -1 -14.7967 138.441 -14.6507 139.102 TC -14.4544 138.352 7 27 263
1940082S14152 1940 18 SP EA NOT_NAMED 1940-03-23 21:00:00 TS -14.7865 137.327 main 64 55 ______P__PP___ -1 -14.9163 137.007 -14.7581 137.942 TC -14.6853 137.030 7 25 266
1940082S14152 1940 18 SP EA NOT_NAMED 1940-03-23 23:00:00 TS -14.7885 136.525 main 57 57 ______P__PO___ -1 -14.9140 136.254 -14.8235 137.201 TC -14.8000 136.300 7 23 273
1940082S14152 1940 18 SP EA NOT_NAMED 1940-03-23 23:30:00 TS -14.7436 136.322 996 bom main 55 55 ______O__PP___ -1 -14.9000 136.100 996 -14.8391 137.020 TC -14.8169 136.152 7 23 283
1940082S14152 1940 18 SP EA NOT_NAMED 1940-03-24 00:00:00 TS -14.7011 136.142 main 58 31 ______P__PP___ -1 -14.8779 135.964 -14.8544 136.840 TC -14.8316 136.013 7 17 278
1940082S14152 1940 18 SP EA NOT_NAMED 1940-03-24 01:30:00 TS -14.6577 135.727 bom main 21 0 ______O__PP___ -1 -14.8000 135.600 -14.8987 136.310 TC -14.8642 135.650 7 15 273
1940082S14152 1940 18 SP EA NOT_NAMED 1940-03-24 03:00:00 TS -14.6549 135.360 main 0 0 ______P__PP___ -1 -14.7483 135.215 -14.9405 135.794 TC -14.8812 135.354 7 14 270
1940082S14152 1940 18 SI WA NOT_NAMED 1940-03-24 06:00:00 TS -14.6561 134.665 main 0 0 ______P__PP___ -1 -14.7105 134.422 -15.0169 134.805 TC -14.8777 134.903 7 13 269
1940082S14152 1940 18 SI WA NOT_NAMED 1940-03-24 09:00:00 TS -14.6671 134.000 main 0 0 ______P__PP___ -1 -14.7442 133.612 -15.0842 133.870 TC -14.8382 134.544 7 13 269
1940082S14152 1940 18 SI WA NOT_NAMED 1940-03-24 11:00:00 TS -14.6803 133.562 main 0 0 ______P__PO___ -1 -14.7968 133.070 -15.1242 133.277 TC -14.8000 134.300 7 13 268
1940082S14152 1940 18 SI WA NOT_NAMED 1940-03-24 12:00:00 TS -14.6887 133.341 main 0 0 ______P__PP___ -1 -14.8300 132.800 -15.1429 132.989 TC -14.7790 134.164 7 13 267
1940082S14152 1940 18 SI WA NOT_NAMED 1940-03-24 15:00:00 TS -14.7198 132.676 main 0 0 ______P__PP___ -1 -14.9487 132.005 -15.1934 132.163 TC -14.7106 133.699 7 14 267
1940082S14152 1940 18 SI WA NOT_NAMED 1940-03-24 18:00:00 TS -14.7645 131.937 main 0 0 ______P__PP___ -1 -15.0816 131.245 -15.2362 131.389 TC -14.6354 133.166 7 14 266
1940082S14152 1940 18 SI WA NOT_NAMED 1940-03-24 21:00:00 TS -14.8287 131.195 main 0 0 ______P__PP___ -1 -15.2099 130.537 -15.2716 130.668 TC -14.5552 132.593 7 14 265
1940082S14152 1940 18 SI WA NOT_NAMED 1940-03-24 23:00:00 TS -14.8591 130.705 main 0 0 ______P__PO___ -1 -15.2838 130.103 -15.2913 130.217 TC -14.5000 132.200 7 16 267
1940082S14152 1940 18 SI WA NOT_NAMED 1940-03-24 23:30:00 TS -14.8653 130.504 1000 bom main 0 0 ______O__P____ -1 -15.3000 130.000 1000 -15.2958 130.108 TC 7 15 277
1940082S14152 1940 18 SI WA NOT_NAMED 1940-03-25 00:00:00 TS -14.8268 130.452 main 0 0 ______P__O____ -1 -15.3039 129.907 -15.3000 130.000 TC 30 1000 7 9 274
1940082S14152 1940 18 SI WA NOT_NAMED 1940-03-25 03:00:00 NR -14.8310 129.969 main 0 0 ______P__P____ -1 -15.3194 129.391 -15.2741 129.330 TC 7 10 266
1940082S14152 1940 18 SI WA NOT_NAMED 1940-03-25 06:00:00 NR -14.8970 129.468 main 11 0 ______P__P____ -1 -15.3226 128.942 -15.2333 128.722 TC 7 9 262
1940082S14152 1940 18 SI WA NOT_NAMED 1940-03-25 09:00:00 NR -14.9622 129.001 main 0 0 ______P__P____ -1 -15.3158 128.548 -15.1816 128.172 TC 7 9 262
1940082S14152 1940 18 SI WA NOT_NAMED 1940-03-25 11:00:00 NR -15.0034 128.706 main 0 0 ______P__P____ -1 -15.3069 128.311 -15.1431 127.835 TC 9 262
1940082S14152 1940 18 SI WA NOT_NAMED 1940-03-25 12:00:00 NR -15.0239 128.563 main 0 0 ______P__P____ -1 -15.3013 128.199 -15.1230 127.675 TC 8 261
1940082S14152 1940 18 SI WA NOT_NAMED 1940-03-25 15:00:00 NR -15.0846 128.149 main 0 0 ______P__P____ -1 -15.2813 127.881 -15.0611 127.225 TC 8 262
1940082S14152 1940 18 SI WA NOT_NAMED 1940-03-25 18:00:00 NR -15.1403 127.751 main 0 0 ______P__P____ -1 -15.2578 127.583 -14.9997 126.820 TC 8 262
1940082S14152 1940 18 SI WA NOT_NAMED 1940-03-25 21:00:00 NR -15.1859 127.361 main 0 0 ______P__P____ -1 -15.2326 127.293 -14.9424 126.454 TC 8 264
1940082S14152 1940 18 SI WA NOT_NAMED 1940-03-25 23:00:00 NR -15.2080 127.100 main 0 0 ______P__P____ -1 -15.2160 127.099 -14.9083 126.230 TC 8 265
1940082S14152 1940 18 SI WA NOT_NAMED 1940-03-26 00:00:00 NR -15.2178 126.969 main 0 0 ______P__P____ -1 -15.2079 127.000 -14.8929 126.123 TC 8 266
1940082S14152 1940 18 SI WA NOT_NAMED 1940-03-26 01:00:00 NR -15.2261 126.839 bom main 0 0 ______O__P____ -1 -15.2000 126.900 -14.8787 126.019 TC 8 267
1940082S14152 1940 18 SI WA NOT_NAMED 1940-03-26 03:00:00 NR -15.2354 126.566 main 0 0 ______P__P____ -1 -15.1795 126.676 -14.8547 125.822 TC 8 269
1940082S14152 1940 18 SI WA NOT_NAMED 1940-03-26 06:00:00 NR -15.2357 126.155 main 0 0 ______P__P____ -1 -15.1476 126.344 -14.8313 125.547 TC 8 271
1940082S14152 1940 18 SI WA NOT_NAMED 1940-03-26 09:00:00 NR -15.2204 125.735 main 0 0 ______P__P____ -1 -15.1189 126.014 -14.8264 125.294 TC 8 273
1940082S14152 1940 18 SI WA NOT_NAMED 1940-03-26 11:00:00 NR -15.2022 125.446 main 10 0 ______P__P____ -1 -15.1044 125.792 -14.8350 125.135 TC 9 275
1940082S14152 1940 18 SI WA NOT_NAMED 1940-03-26 12:00:00 NR -15.1822 125.284 main 0 0 ______P__P____ -1 -15.0991 125.679 -14.8433 125.058 TC 10 278
1940082S14152 1940 18 SI WA NOT_NAMED 1940-03-26 15:00:00 NR -15.1096 124.779 main 11 11 ______P__P____ -1 -15.0933 125.336 -14.8857 124.835 TC 10 278
1940082S14152 1940 18 SI WA NOT_NAMED 1940-03-26 17:00:00 NR -15.0632 124.439 bom main 44 44 ______O__P____ -1 -15.1000 125.100 -14.9298 124.691 TC 10 278
1940082S14152 1940 18 SI WA NOT_NAMED 1940-03-26 18:00:00 NR -15.0397 124.269 main 58 58 ______P__P____ -1 -15.0977 124.972 -14.9570 124.621 TC 9 276
1940082S14152 1940 18 SI WA NOT_NAMED 1940-03-26 21:00:00 NR -15.0008 123.790 main 93 93 ______P__P____ -1 -15.1068 124.585 -15.0606 124.410 TC 9 272
1940082S14152 1940 18 SI WA NOT_NAMED 1940-03-26 23:00:00 NR -15.0189 123.517 main 117 111 ______P__P____ -1 -15.1378 124.334 -15.1493 124.270 TC 6 257
1940082S14152 1940 18 SI WA NOT_NAMED 1940-03-27 00:00:00 TS -15.0696 123.492 main 111 111 ______P__O____ -1 -15.1644 124.215 -15.2000 124.200 TC 4 207
1940082S14152 1940 18 SI WA NOT_NAMED 1940-03-27 01:00:00 TS -15.1303 123.461 bom main 111 105 ______O__P____ -1 -15.2000 124.100 -15.2523 124.101 TC 5 216
1940082S14152 1940 18 SI WA NOT_NAMED 1940-03-27 03:00:00 TS -15.2651 123.342 main 109 94 ______P__P____ -1 -15.3014 123.889 -15.3668 123.908 TC 6 216
1940082S14152 1940 18 SI WA NOT_NAMED 1940-03-27 06:00:00 TS -15.5098 123.173 main 94 78 ______P__P____ -1 -15.5174 123.608 -15.5627 123.630 TC 6 212
1940082S14152 1940 18 SI WA NOT_NAMED 1940-03-27 09:00:00 TS -15.7862 123.001 main 78 55 ______P__P____ -1 -15.7891 123.361 -15.7869 123.369 TC 6 208
1940082S14152 1940 18 SI WA NOT_NAMED 1940-03-27 11:00:00 TS -15.9802 122.905 main 55 44 ______P__P____ -1 -15.9892 123.210 -15.9516 123.205 TC 6 206
1940082S14152 1940 18 SI WA NOT_NAMED 1940-03-27 12:00:00 TS -16.0688 122.857 main 44 35 ______P__P____ -1 -16.0922 123.139 -16.0384 123.127 TC 6 207
1940082S14152 1940 18 SI WA NOT_NAMED 1940-03-27 14:00:00 TS -16.2472 122.771 992 bom main 35 24 ______O__P____ -1 -16.3000 123.000 992 -16.2208 122.977 TC 6 205
1940082S14152 1940 18 SI WA NOT_NAMED 1940-03-27 15:00:00 TS -16.3299 122.731 main 30 15 ______P__P____ -1 -16.3809 122.925 991 -16.3163 122.906 TC 6 202
1940082S14152 1940 18 SI WA NOT_NAMED 1940-03-27 18:00:00 TS -16.5895 122.625 main 15 0 ______P__P____ -1 -16.6304 122.715 990 -16.6199 122.709 TC 6 199
1940082S14152 1940 18 SI WA NOT_NAMED 1940-03-27 21:00:00 TS -16.8823 122.537 main 0 0 ______P__P____ -1 -16.9143 122.524 989 -16.9480 122.540 TC 6 195
1940082S14152 1940 18 SI WA NOT_NAMED 1940-03-27 23:00:00 TS -17.1060 122.484 main 0 0 ______P__P____ -1 -17.1380 122.407 989 -17.1801 122.443 TC 7 193
1940082S14152 1940 18 SI WA NOT_NAMED 1940-03-28 00:00:00 TS -17.2310 122.457 main 0 0 ______P__O____ -1 -17.2637 122.353 988 -17.3000 122.400 TC 8 191
1940082S14152 1940 18 SI WA NOT_NAMED 1940-03-28 01:00:00 TS -17.3634 122.431 bom main 0 0 ______I__P____ -1 -17.4000 122.300 988 -17.4224 122.360 TC 9 190
1940082S14152 1940 18 SI WA NOT_NAMED 1940-03-28 03:00:00 TS -17.6474 122.382 988 bom main 0 0 ______O__P____ -1 -17.7000 122.200 988 -17.6746 122.291 TC 9 190
1940082S14152 1940 18 SI WA NOT_NAMED 1940-03-28 06:00:00 TS -18.0734 122.293 main 10 0 ______P__P____ -1 -18.0943 122.002 982 -18.0693 122.211 TC 9 191
1940082S14152 1940 18 SI WA NOT_NAMED 1940-03-28 09:00:00 TS -18.5000 122.199 main 0 0 ______P__P____ -1 -18.4533 121.799 976 -18.4813 122.155 TC 9 191
1940082S14152 1940 18 SI WA NOT_NAMED 1940-03-28 11:00:00 TS -18.7881 122.143 972 bom main 0 0 ______O__P____ -1 -18.7000 121.700 972 4 -18.7642 122.129 TC 9 190
1940082S14152 1940 18 SI WA NOT_NAMED 1940-03-28 12:00:00 TS -18.9339 122.120 main 0 0 ______P__P____ -1 -18.8312 121.669 -18.9078 122.119 TC 9 187
1940082S14152 1940 18 SI WA NOT_NAMED 1940-03-28 15:00:00 TS -19.3786 122.068 main 0 0 ______P__P____ -1 -19.2577 121.651 -19.3458 122.100 TC 9 186
1940082S14152 1940 18 SI WA NOT_NAMED 1940-03-28 18:00:00 TS -19.8188 122.015 main 0 0 ______P__P____ -1 -19.7241 121.725 -19.7924 122.093 TC 9 185
1940082S14152 1940 18 SI WA NOT_NAMED 1940-03-28 21:00:00 TS -20.2707 121.998 main 0 0 ______P__P____ -1 -20.2185 121.862 -20.2448 122.094 TC 9 0
1940082S14152 1940 18 SI WA NOT_NAMED 1940-03-28 23:00:00 TS -20.5781 122.021 main 0 0 ______P__P____ -1 -20.5575 121.977 -20.5482 122.098 TC 9 174
1940082S14152 1940 18 SI WA NOT_NAMED 1940-03-29 00:00:00 TS -20.7190 122.059 main 0 0 ______P__O____ -1 -20.7286 122.038 -20.7000 122.100 TC 10 168
1940082S14152 1940 18 SI WA NOT_NAMED 1940-03-29 01:00:00 NR -20.9000 122.100 bom main 0 ______O_______ -1 -20.9000 122.100 TC 11 167

Digital Typhoon Data and Search

About IBTrACS Database

This database is a web-friendly format of International Best Track Archive for Climate Stewardship (IBTrACS), a global best track data archive curated by NOAA dating back to 1842.

Updated: 2021-10-21